Time,TemperatureF,DewpointF,PressureIn,WindDirection,WindDirectionDegrees,WindSpeedMPH,WindSpeedGustMPH,Humidity,HourlyPrecipIn,Conditions,Clouds,dailyrainin,SolarRadiationWatts/m^2,SoftwareType,DateUTC
2013-11-09 00:03:00,45.0,20.0,-100.00,ENE,76,5.0,8.0,36,0.00,,,0.00,0.000000,,2013-11-09 06:03:00,
2013-11-09 00:43:00,43.0,20.0,-100.00,ENE,65,5.0,12.0,39,0.00,,,0.00,0.000000,,2013-11-09 06:43:00,
2013-11-09 00:54:00,43.0,20.0,-100.00,ENE,65,5.0,12.0,39,0.00,,,0.00,0.000000,,2013-11-09 06:54:00,
2013-11-09 01:03:00,43.0,20.0,-100.00,ENE,65,5.0,12.0,39,0.00,,,0.00,0.000000,,2013-11-09 07:03:00,
2013-11-09 01:42:00,43.0,19.0,-100.00,East,88,5.0,11.0,38,0.00,,,0.00,0.000000,,2013-11-09 07:42:00,
2013-11-09 01:53:00,43.0,19.0,-100.00,East,88,5.0,11.0,38,0.00,,,0.00,0.000000,,2013-11-09 07:53:00,
2013-11-09 02:02:00,43.0,19.0,-100.00,East,88,5.0,11.0,38,0.00,,,0.00,0.000000,,2013-11-09 08:02:00,
2013-11-09 02:42:00,43.0,20.0,-100.00,East,94,5.0,8.0,39,0.00,,,0.00,0.000000,,2013-11-09 08:42:00,
2013-11-09 02:52:00,43.0,20.0,-100.00,East,94,5.0,8.0,39,0.00,,,0.00,0.000000,,2013-11-09 08:52:00,
2013-11-09 03:02:00,43.0,20.0,-100.00,East,94,5.0,8.0,39,0.00,,,0.00,0.000000,,2013-11-09 09:02:00,
2013-11-09 03:43:00,40.0,21.0,-100.00,ESE,113,6.0,8.0,46,0.00,,,0.00,0.000000,,2013-11-09 09:43:00,
2013-11-09 03:53:00,40.0,21.0,-100.00,ESE,113,6.0,8.0,46,0.00,,,0.00,0.000000,,2013-11-09 09:53:00,
2013-11-09 04:03:00,40.0,21.0,-100.00,ESE,113,6.0,8.0,46,0.00,,,0.00,0.000000,,2013-11-09 10:03:00,
2013-11-09 04:43:00,41.0,22.0,-100.00,SE,129,7.0,9.0,47,0.00,,,0.00,0.000000,,2013-11-09 10:43:00,
2013-11-09 04:52:00,41.0,22.0,-100.00,SE,129,7.0,9.0,47,0.00,,,0.00,0.000000,,2013-11-09 10:52:00,
2013-11-09 05:03:00,41.0,22.0,-100.00,SE,129,7.0,9.0,47,0.00,,,0.00,0.000000,,2013-11-09 11:03:00,
2013-11-09 05:43:00,41.0,22.0,-100.00,ESE,108,6.0,10.0,46,0.00,,,0.00,0.000000,,2013-11-09 11:43:00,
2013-11-09 05:52:00,41.0,22.0,-100.00,ESE,108,6.0,10.0,46,0.00,,,0.00,0.000000,,2013-11-09 11:52:00,
2013-11-09 06:02:00,41.0,22.0,-100.00,ESE,108,6.0,10.0,46,0.00,,,0.00,0.000000,,2013-11-09 12:02:00,
2013-11-09 06:42:00,40.0,23.0,-100.00,SE,128,5.0,10.0,51,0.00,,,0.00,0.000000,,2013-11-09 12:42:00,
2013-11-09 06:52:00,40.0,23.0,-100.00,SE,128,5.0,10.0,51,0.00,,,0.00,0.000000,,2013-11-09 12:52:00,
2013-11-09 07:02:00,40.0,23.0,-100.00,SE,128,5.0,10.0,51,0.00,,,0.00,0.000000,,2013-11-09 13:02:00,
2013-11-09 07:42:00,42.0,26.0,-100.00,SSE,153,4.0,10.0,52,0.00,,,0.00,21.000000,,2013-11-09 13:42:00,
2013-11-09 07:52:00,42.0,26.0,-100.00,SSE,153,4.0,10.0,52,0.00,,,0.00,21.000000,,2013-11-09 13:52:00,
2013-11-09 08:02:00,42.0,26.0,-100.00,SSE,153,4.0,10.0,52,0.00,,,0.00,21.000000,,2013-11-09 14:02:00,
2013-11-09 08:52:00,50.0,29.0,-100.00,SSE,167,5.0,10.0,44,0.00,,,0.00,197.000000,,2013-11-09 14:52:00,
2013-11-09 09:02:00,50.0,29.0,-100.00,SSE,167,5.0,10.0,44,0.00,,,0.00,197.000000,,2013-11-09 15:02:00,
2013-11-09 09:44:00,53.0,30.0,-100.00,SSE,167,5.0,11.0,41,0.00,,,0.00,371.000000,,2013-11-09 15:44:00,
2013-11-09 09:54:00,53.0,30.0,-100.00,SSE,167,5.0,11.0,41,0.00,,,0.00,371.000000,,2013-11-09 15:54:00,
2013-11-09 10:03:00,53.0,30.0,-100.00,SSE,167,5.0,11.0,41,0.00,,,0.00,371.000000,,2013-11-09 16:03:00,
2013-11-09 10:43:00,54.0,31.0,-100.00,SE,139,5.0,10.0,42,0.00,,,0.00,411.000000,,2013-11-09 16:43:00,
2013-11-09 10:53:00,54.0,31.0,-100.00,SE,139,5.0,10.0,42,0.00,,,0.00,411.000000,,2013-11-09 16:53:00,
2013-11-09 11:03:00,54.0,31.0,-100.00,SE,139,5.0,10.0,42,0.00,,,0.00,411.000000,,2013-11-09 17:03:00,
2013-11-09 11:44:00,54.0,31.0,-100.00,SSW,213,5.0,16.0,42,0.00,,,0.00,370.000000,,2013-11-09 17:44:00,
2013-11-09 11:52:00,54.0,31.0,-100.00,SSW,213,5.0,16.0,42,0.00,,,0.00,370.000000,,2013-11-09 17:52:00,
2013-11-09 12:02:00,54.0,31.0,-100.00,SSW,213,5.0,16.0,42,0.00,,,0.00,370.000000,,2013-11-09 18:02:00,
2013-11-09 12:42:00,52.0,31.0,-100.00,South,186,6.0,13.0,45,0.00,,,0.00,187.000000,,2013-11-09 18:42:00,
2013-11-09 12:52:00,52.0,31.0,-100.00,South,186,6.0,13.0,45,0.00,,,0.00,187.000000,,2013-11-09 18:52:00,
2013-11-09 13:02:00,52.0,31.0,-100.00,South,186,6.0,13.0,45,0.00,,,0.00,187.000000,,2013-11-09 19:02:00,
2013-11-09 13:42:00,51.0,31.0,-100.00,SW,216,4.0,12.0,47,0.00,,,0.00,92.000000,,2013-11-09 19:42:00,
2013-11-09 13:52:00,51.0,31.0,-100.00,SW,216,4.0,12.0,47,0.00,,,0.00,92.000000,,2013-11-09 19:52:00,
2013-11-09 14:02:00,51.0,31.0,-100.00,SW,216,4.0,12.0,47,0.00,,,0.00,92.000000,,2013-11-09 20:02:00,
2013-11-09 14:42:00,52.0,31.0,-100.00,SE,140,5.0,8.0,44,0.00,,,0.00,170.000000,,2013-11-09 20:42:00,
2013-11-09 14:52:00,52.0,31.0,-100.00,SE,140,5.0,8.0,44,0.00,,,0.00,170.000000,,2013-11-09 20:52:00,
2013-11-09 15:03:00,52.0,31.0,-100.00,SE,140,5.0,8.0,44,0.00,,,0.00,170.000000,,2013-11-09 21:03:00,
2013-11-09 15:44:00,51.0,32.0,-100.00,ESE,113,5.0,12.0,48,0.00,,,0.00,177.000000,,2013-11-09 21:44:00,
2013-11-09 15:54:00,51.0,32.0,-100.00,ESE,113,5.0,12.0,48,0.00,,,0.00,177.000000,,2013-11-09 21:54:00,
2013-11-09 16:04:00,51.0,32.0,-100.00,ESE,113,5.0,12.0,48,0.00,,,0.00,177.000000,,2013-11-09 22:04:00,
2013-11-09 16:43:00,49.0,33.0,-100.00,SSE,150,3.0,8.0,53,0.00,,,0.00,69.000000,,2013-11-09 22:43:00,
2013-11-09 16:54:00,49.0,33.0,-100.00,SSE,150,3.0,8.0,53,0.00,,,0.00,69.000000,,2013-11-09 22:54:00,
2013-11-09 17:02:00,49.0,33.0,-100.00,SSE,150,3.0,8.0,53,0.00,,,0.00,69.000000,,2013-11-09 23:02:00,
2013-11-09 17:42:00,48.0,33.0,-100.00,SE,135,4.0,6.0,56,0.00,,,0.00,9.000000,,2013-11-09 23:42:00,
2013-11-09 17:53:00,48.0,33.0,-100.00,SE,135,4.0,6.0,56,0.00,,,0.00,9.000000,,2013-11-09 23:53:00,
2013-11-09 18:02:00,48.0,33.0,-100.00,SE,135,4.0,6.0,56,0.00,,,0.00,9.000000,,2013-11-10 00:02:00,
2013-11-09 18:42:00,47.0,33.0,-100.00,WSW,248,3.0,6.0,59,0.00,,,0.00,0.000000,,2013-11-10 00:42:00,
2013-11-09 18:52:00,47.0,33.0,-100.00,WSW,248,3.0,6.0,59,0.00,,,0.00,0.000000,,2013-11-10 00:52:00,
2013-11-09 19:02:00,47.0,33.0,-100.00,WSW,248,3.0,6.0,59,0.00,,,0.00,0.000000,,2013-11-10 01:02:00,
2013-11-09 19:42:00,47.0,35.0,-100.00,SW,215,4.0,7.0,63,0.00,,,0.00,0.000000,,2013-11-10 01:42:00,
2013-11-09 19:52:00,47.0,35.0,-100.00,SW,215,4.0,7.0,63,0.00,,,0.00,0.000000,,2013-11-10 01:52:00,
2013-11-09 20:02:00,47.0,35.0,-100.00,SW,215,4.0,7.0,63,0.00,,,0.00,0.000000,,2013-11-10 02:02:00,
2013-11-09 20:42:00,46.0,34.0,-100.00,SW,234,6.0,11.0,62,0.00,,,0.00,0.000000,,2013-11-10 02:42:00,
2013-11-09 20:52:00,46.0,34.0,-100.00,SW,234,6.0,11.0,62,0.00,,,0.00,0.000000,,2013-11-10 02:52:00,
2013-11-09 21:03:00,46.0,34.0,-100.00,SW,234,6.0,11.0,62,0.00,,,0.00,0.000000,,2013-11-10 03:03:00,
2013-11-09 21:44:00,47.0,34.0,-100.00,WSW,246,5.0,10.0,61,0.00,,,0.00,0.000000,,2013-11-10 03:44:00,
2013-11-09 21:54:00,47.0,34.0,-100.00,WSW,246,5.0,10.0,61,0.00,,,0.00,0.000000,,2013-11-10 03:54:00,
2013-11-09 22:02:00,-999.0,-99.9,-100.00,WSW,246,5.0,10.0,-999,-99.99,,,-99.99,0.000000,,2013-11-10 04:02:00,
2013-11-09 22:43:00,47.0,35.0,-100.00,WSW,244,5.0,10.0,62,0.00,,,0.00,0.000000,,2013-11-10 04:43:00,
2013-11-09 22:52:00,47.0,35.0,-100.00,WSW,244,5.0,10.0,62,0.00,,,0.00,0.000000,,2013-11-10 04:52:00,
2013-11-09 23:03:00,47.0,35.0,-100.00,WSW,244,5.0,10.0,62,0.00,,,0.00,0.000000,,2013-11-10 05:03:00,
2013-11-09 23:43:00,46.0,35.0,-100.00,West,274,3.0,9.0,65,0.00,,,0.00,0.000000,,2013-11-10 05:43:00,
2013-11-09 23:54:00,46.0,35.0,-100.00,West,274,3.0,9.0,65,0.00,,,0.00,0.000000,,2013-11-10 05:54:00,